createdAt,value
2018-10-07T00:00:32.297Z,15.17
2018-10-07T00:01:32.543Z,15.17
2018-10-07T00:02:32.284Z,15.20
2018-10-07T00:03:32.262Z,15.11
2018-10-07T00:04:32.333Z,15.14
2018-10-07T00:05:32.286Z,15.10
2018-10-07T00:06:33.480Z,15.10
2018-10-07T00:07:32.260Z,15.05
2018-10-07T00:08:32.491Z,14.96
2018-10-07T00:09:32.179Z,15.04
2018-10-07T00:10:32.136Z,14.95
2018-10-07T00:11:32.097Z,14.93
2018-10-07T00:12:32.086Z,14.92
2018-10-07T00:13:32.066Z,14.78
2018-10-07T00:14:32.104Z,14.74
2018-10-07T00:15:32.405Z,14.79
2018-10-07T00:16:32.027Z,14.73
2018-10-07T00:17:37.515Z,14.67
2018-10-07T00:18:32.059Z,14.70
2018-10-07T00:19:31.984Z,14.63
2018-10-07T00:20:31.969Z,14.63
2018-10-07T00:21:32.261Z,14.66
2018-10-07T00:22:31.937Z,14.69
2018-10-07T00:23:32.227Z,14.74
2018-10-07T00:24:31.901Z,14.66
2018-10-07T00:25:31.903Z,14.74
2018-10-07T00:26:31.877Z,14.77
2018-10-07T00:27:32.218Z,14.77
2018-10-07T00:28:31.853Z,14.83
2018-10-07T00:29:31.973Z,14.96
2018-10-07T00:30:31.818Z,15.15
2018-10-07T00:31:31.876Z,15.32
2018-10-07T00:32:31.879Z,15.47
2018-10-07T00:33:32.135Z,15.58
2018-10-07T00:34:32.062Z,15.66
2018-10-07T00:35:31.744Z,15.84
2018-10-07T00:36:31.905Z,15.91
2018-10-07T00:37:31.715Z,16.05
2018-10-07T00:38:31.698Z,16.09
2018-10-07T00:39:32.004Z,16.17
2018-10-07T00:40:31.667Z,16.17
2018-10-07T00:41:31.664Z,16.14
2018-10-07T00:42:32.022Z,16.24
2018-10-07T00:43:31.684Z,16.28
2018-10-07T00:44:31.705Z,16.26
2018-10-07T00:45:31.942Z,16.29
2018-10-07T00:46:31.771Z,16.34
2018-10-07T00:47:31.617Z,16.29
2018-10-07T00:48:31.624Z,16.13
2018-10-07T00:49:31.595Z,16.21
2018-10-07T00:50:31.608Z,16.22
2018-10-07T00:51:31.886Z,16.21
2018-10-07T00:52:31.553Z,16.10
2018-10-07T00:53:31.541Z,16.03
2018-10-07T00:54:31.458Z,16.05
2018-10-07T00:55:31.495Z,16.00
2018-10-07T00:56:31.494Z,16.05
2018-10-07T00:57:31.788Z,15.91
2018-10-07T00:58:31.401Z,15.95
2018-10-07T00:59:31.381Z,15.85
2018-10-07T01:00:31.418Z,15.81
2018-10-07T01:01:31.436Z,15.90
2018-10-07T01:02:31.339Z,15.85
2018-10-07T01:03:31.385Z,15.84
2018-10-07T01:04:31.681Z,15.66
2018-10-07T01:05:31.358Z,15.73
2018-10-07T01:06:31.348Z,15.76
2018-10-07T01:07:31.274Z,15.78
2018-10-07T01:08:31.321Z,15.70
2018-10-07T01:09:31.236Z,15.70
2018-10-07T01:10:31.283Z,15.66
2018-10-07T01:11:31.672Z,15.66
2018-10-07T01:12:31.186Z,15.60
2018-10-07T01:13:31.233Z,15.65
2018-10-07T01:14:31.205Z,15.65
2018-10-07T01:15:31.218Z,15.69
2018-10-07T01:16:31.133Z,15.65
2018-10-07T01:17:31.211Z,15.52
2018-10-07T01:18:31.396Z,15.66
2018-10-07T01:19:31.081Z,15.65
2018-10-07T01:20:31.122Z,15.66
2018-10-07T01:21:31.231Z,15.66
2018-10-07T01:22:31.159Z,15.59
2018-10-07T01:23:31.092Z,15.62
2018-10-07T01:24:31.078Z,15.62
2018-10-07T01:25:31.360Z,15.63
2018-10-07T01:26:31.043Z,15.59
2018-10-07T01:27:31.072Z,15.68
2018-10-07T01:28:31.802Z,15.62
2018-10-07T01:29:31.171Z,15.62
2018-10-07T01:30:31.086Z,15.59
2018-10-07T01:31:31.034Z,15.63
2018-10-07T01:32:31.212Z,15.52
2018-10-07T01:33:30.870Z,15.52
2018-10-07T01:34:30.920Z,15.51
2018-10-07T01:35:30.844Z,15.56
2018-10-07T01:36:30.871Z,15.63
2018-10-07T01:37:30.879Z,15.60
2018-10-07T01:38:30.798Z,15.59
2018-10-07T01:39:31.173Z,15.59
2018-10-07T01:40:30.839Z,15.58
2018-10-07T01:41:30.823Z,15.66
2018-10-07T01:42:31.004Z,15.65
2018-10-07T01:43:30.789Z,15.56
2018-10-07T01:44:30.701Z,15.62
2018-10-07T01:45:30.768Z,15.66
2018-10-07T01:46:31.058Z,15.66
2018-10-07T01:47:30.844Z,15.63
2018-10-07T01:48:30.945Z,15.63
2018-10-07T01:49:30.727Z,15.56
2018-10-07T01:50:30.715Z,15.62
2018-10-07T01:51:30.666Z,15.62
2018-10-07T01:52:30.882Z,15.62
2018-10-07T01:53:30.614Z,15.63
2018-10-07T01:54:30.858Z,15.56
2018-10-07T01:57:30.560Z,15.50
2018-10-07T01:58:30.645Z,15.48
2018-10-07T01:59:30.914Z,15.44
2018-10-07T02:00:30.615Z,15.44
2018-10-07T02:01:30.454Z,15.38
2018-10-07T02:02:30.429Z,15.45
2018-10-07T02:03:30.415Z,15.44
2018-10-07T02:05:30.860Z,15.40
2018-10-07T02:06:30.380Z,15.43
2018-10-07T02:07:30.366Z,15.33
2018-10-07T02:08:30.354Z,15.41
2018-10-07T02:09:30.332Z,15.32
2018-10-07T02:10:30.562Z,15.35
2018-10-07T02:11:30.596Z,15.32
2018-10-07T02:12:30.281Z,15.26
2018-10-07T02:13:30.332Z,15.32
2018-10-07T02:14:30.246Z,15.30
2018-10-07T02:15:30.565Z,15.33
2018-10-07T02:16:30.219Z,15.30
2018-10-07T02:17:30.602Z,15.25
2018-10-07T02:18:30.203Z,15.25
2018-10-07T02:19:30.169Z,15.25
2018-10-07T02:22:30.166Z,15.12
2018-10-07T02:23:30.464Z,15.15
2018-10-07T02:24:30.096Z,15.11
2018-10-07T02:25:30.217Z,15.14
2018-10-07T02:26:30.269Z,15.07
2018-10-07T02:27:30.103Z,15.08
2018-10-07T02:28:30.277Z,15.20
2018-10-07T02:29:30.726Z,15.11
2018-10-07T02:30:30.089Z,15.08
2018-10-07T02:31:30.063Z,15.10
2018-10-07T02:32:29.974Z,15.12
2018-10-07T02:33:30.009Z,15.01
2018-10-07T02:35:29.936Z,15.05
2018-10-07T02:36:30.230Z,14.95
2018-10-07T02:37:29.894Z,15.01
2018-10-07T02:38:29.883Z,14.96
2018-10-07T02:40:30.049Z,14.86
2018-10-07T02:41:29.913Z,14.95
2018-10-07T02:42:29.929Z,14.85
2018-10-07T02:43:30.181Z,14.74
2018-10-07T02:44:29.793Z,14.79
2018-10-07T02:45:29.831Z,14.79
2018-10-07T02:46:29.804Z,14.71
2018-10-07T02:47:29.737Z,14.77
2018-10-07T02:48:29.842Z,14.71
2018-10-07T02:49:29.726Z,14.63
2018-10-07T02:50:30.330Z,14.63
2018-10-07T02:51:29.849Z,14.63
2018-10-07T02:52:29.734Z,14.63
2018-10-07T02:53:29.816Z,14.59
2018-10-07T02:54:29.680Z,14.61
2018-10-07T02:55:29.666Z,14.53
2018-10-07T02:56:29.600Z,14.55
2018-10-07T02:57:29.980Z,14.59
2018-10-07T02:58:29.718Z,14.52
2018-10-07T02:59:29.561Z,14.55
2018-10-07T03:00:29.623Z,14.58
2018-10-07T03:01:29.521Z,14.55
2018-10-07T03:02:29.511Z,14.52
2018-10-07T03:03:29.495Z,14.53
2018-10-07T03:04:29.805Z,14.51
2018-10-07T03:05:29.519Z,14.48
2018-10-07T03:06:29.456Z,14.46
2018-10-07T03:07:29.498Z,14.46
2018-10-07T03:08:29.414Z,14.38
2018-10-07T03:09:29.396Z,14.36
2018-10-07T03:10:29.377Z,14.33
2018-10-07T03:11:29.791Z,14.38
2018-10-07T03:12:29.440Z,14.33
2018-10-07T03:13:30.859Z,14.36
2018-10-07T03:14:29.397Z,14.31
2018-10-07T03:15:29.312Z,14.31
2018-10-07T03:16:29.353Z,14.36
2018-10-07T03:17:29.596Z,14.26
2018-10-07T03:18:29.908Z,14.37
2018-10-07T03:19:29.418Z,14.28
2018-10-07T03:20:29.494Z,14.30
2018-10-07T03:21:29.499Z,14.21
2018-10-07T03:22:29.198Z,14.30
2018-10-07T03:23:29.182Z,14.33
2018-10-07T03:24:29.458Z,14.26
2018-10-07T03:25:29.141Z,14.19
2018-10-07T03:26:29.141Z,14.27
2018-10-07T03:27:29.117Z,14.21
2018-10-07T03:28:29.410Z,14.22
2018-10-07T03:29:29.289Z,14.22
2018-10-07T03:30:29.369Z,14.15
2018-10-07T03:31:29.120Z,14.21
2018-10-07T03:32:29.201Z,14.13
2018-10-07T03:33:29.084Z,14.08
2018-10-07T03:34:29.072Z,14.01
2018-10-07T03:35:29.086Z,13.82
2018-10-07T03:36:29.346Z,13.83
2018-10-07T03:37:29.044Z,13.85
2018-10-07T03:38:28.946Z,13.78
2018-10-07T03:39:29.173Z,13.80
2018-10-07T03:41:28.886Z,13.67
2018-10-07T03:42:29.254Z,13.76
2018-10-07T03:43:28.985Z,13.67
2018-10-07T03:44:28.937Z,13.54
2018-10-07T03:45:28.998Z,13.60
2018-10-07T03:46:28.832Z,13.45
2018-10-07T03:47:28.869Z,13.43
2018-10-07T03:48:29.125Z,13.24
2018-10-07T03:49:29.066Z,13.17
2018-10-07T03:50:28.739Z,13.11
2018-10-07T03:51:28.728Z,13.08
2018-10-07T03:52:28.708Z,12.90
2018-10-07T03:53:28.745Z,12.95
2018-10-07T03:54:29.053Z,12.83
2018-10-07T03:55:28.965Z,12.83
2018-10-07T03:56:28.649Z,12.73
2018-10-07T03:57:28.677Z,12.72
2018-10-07T03:58:28.618Z,12.61
2018-10-07T03:59:28.638Z,12.65
2018-10-07T04:00:28.575Z,12.61
2018-10-07T04:01:28.859Z,12.54
2018-10-07T04:02:28.542Z,12.50
2018-10-07T04:03:28.572Z,12.65
2018-10-07T04:04:28.575Z,12.55
2018-10-07T04:05:28.503Z,12.47
2018-10-07T04:06:28.473Z,12.30
2018-10-07T04:07:28.459Z,12.32
2018-10-07T04:08:28.837Z,12.29
2018-10-07T04:09:28.437Z,12.28
2018-10-07T04:10:28.409Z,11.97
2018-10-07T04:11:28.390Z,11.93
2018-10-07T04:12:28.428Z,11.79
2018-10-07T04:13:28.356Z,11.74
2018-10-07T04:14:28.408Z,11.66
2018-10-07T04:15:28.773Z,11.66
2018-10-07T04:16:28.314Z,11.66
2018-10-07T04:17:28.290Z,11.73
2018-10-07T04:18:28.554Z,11.71
2018-10-07T04:19:28.386Z,11.71
2018-10-07T04:20:28.286Z,11.69
2018-10-07T04:21:28.269Z,11.69
2018-10-07T04:22:28.501Z,11.59
2018-10-07T04:23:28.231Z,11.58
2018-10-07T04:24:28.245Z,11.41
2018-10-07T04:25:28.207Z,11.38
2018-10-07T04:26:28.195Z,11.37
2018-10-07T04:27:28.200Z,11.37
2018-10-07T04:28:28.175Z,11.34
2018-10-07T04:29:28.525Z,11.33
2018-10-07T04:30:28.141Z,11.34
2018-10-07T04:31:28.138Z,11.23
2018-10-07T04:32:28.027Z,11.31
2018-10-07T04:33:28.073Z,11.11
2018-10-07T04:34:28.174Z,11.12
2018-10-07T04:35:28.504Z,11.12
2018-10-07T04:36:28.263Z,11.09
2018-10-07T04:37:27.991Z,11.04
2018-10-07T04:38:28.029Z,10.94
2018-10-07T04:39:28.034Z,10.95
2018-10-07T04:40:28.307Z,10.97
2018-10-07T04:41:27.984Z,11.01
2018-10-07T04:42:27.966Z,10.85
2018-10-07T04:43:28.199Z,10.90
2018-10-07T04:44:27.896Z,10.86
2018-10-07T04:45:27.799Z,10.80
2018-10-07T04:46:28.075Z,10.80
2018-10-07T04:47:27.843Z,10.70
2018-10-07T04:48:27.842Z,10.73
2018-10-07T04:49:28.131Z,10.70
2018-10-07T04:50:27.767Z,10.67
2018-10-07T04:51:27.759Z,10.67
2018-10-07T04:52:27.728Z,10.64
2018-10-07T04:53:27.673Z,10.64
2018-10-07T04:54:27.658Z,10.68
2018-10-07T04:55:27.990Z,10.62
2018-10-07T04:56:27.646Z,10.68
2018-10-07T04:57:27.663Z,10.68
2018-10-07T04:58:27.631Z,10.72
2018-10-07T04:59:27.543Z,10.58
2018-10-07T05:00:27.678Z,10.62
2018-10-07T05:01:27.855Z,10.61
2018-10-07T05:02:27.640Z,10.61
2018-10-07T05:03:27.474Z,10.60
2018-10-07T05:04:27.565Z,10.58
2018-10-07T05:05:27.604Z,10.68
2018-10-07T05:06:27.470Z,10.68
2018-10-07T05:07:27.743Z,10.60
2018-10-07T05:08:27.463Z,10.62
2018-10-07T05:09:27.354Z,10.68
2018-10-07T05:10:27.347Z,10.58
2018-10-07T05:11:30.222Z,10.62
2018-10-07T05:12:27.460Z,10.54
2018-10-07T05:13:27.888Z,10.60
2018-10-07T05:14:27.267Z,10.58
2018-10-07T05:15:27.244Z,10.67
2018-10-07T05:16:27.229Z,10.60
2018-10-07T05:17:27.206Z,10.65
2018-10-07T05:18:27.246Z,10.54
2018-10-07T05:19:27.466Z,10.57
2018-10-07T05:20:27.148Z,10.57
2018-10-07T05:22:27.116Z,10.58
2018-10-07T05:23:27.096Z,10.58
2018-10-07T05:24:27.087Z,10.58
2018-10-07T05:25:27.360Z,10.62
2018-10-07T05:26:27.240Z,10.62
2018-10-07T05:27:27.027Z,10.58
2018-10-07T05:28:27.054Z,10.55
2018-10-07T05:29:27.077Z,10.62
2018-10-07T05:30:26.966Z,10.57
2018-10-07T05:31:27.068Z,10.54
2018-10-07T05:32:27.408Z,10.46
2018-10-07T05:33:27.084Z,10.46
2018-10-07T05:34:26.949Z,10.52
2018-10-07T05:35:26.945Z,10.57
2018-10-07T05:37:26.896Z,10.52
2018-10-07T05:38:26.822Z,10.58
2018-10-07T05:39:27.148Z,10.55
2018-10-07T05:40:26.875Z,10.65
2018-10-07T05:41:26.840Z,10.58
2018-10-07T05:42:26.750Z,10.49
2018-10-07T05:43:26.738Z,10.48
2018-10-07T05:44:26.875Z,10.49
2018-10-07T05:45:26.748Z,10.57
2018-10-07T05:46:26.973Z,10.54
2018-10-07T05:47:26.654Z,10.48
2018-10-07T05:48:26.639Z,10.48
2018-10-07T05:49:26.665Z,10.48
2018-10-07T05:50:26.758Z,10.48
2018-10-07T05:51:26.644Z,10.52
2018-10-07T05:52:26.651Z,10.49
2018-10-07T05:53:26.895Z,10.54
2018-10-07T05:54:26.595Z,10.52
2018-10-07T05:55:26.581Z,10.45
2018-10-07T05:56:26.483Z,10.43
2018-10-07T05:57:26.469Z,10.34
2018-10-07T05:58:26.451Z,10.42
2018-10-07T05:59:26.520Z,10.43
2018-10-07T06:00:26.711Z,10.45
2018-10-07T06:01:26.696Z,10.42
2018-10-07T06:02:26.387Z,10.43
2018-10-07T06:03:26.932Z,10.42
2018-10-07T06:04:26.344Z,10.41
2018-10-07T06:05:26.326Z,10.38
2018-10-07T06:06:26.296Z,10.31
2018-10-07T06:07:26.625Z,10.43
2018-10-07T06:08:26.260Z,10.39
2018-10-07T06:09:26.249Z,10.45
2018-10-07T06:10:26.292Z,10.45
2018-10-07T06:11:26.219Z,10.41
2018-10-07T06:12:26.264Z,10.48
2018-10-07T06:13:26.235Z,10.43
2018-10-07T06:15:26.452Z,10.43
2018-10-07T06:16:26.189Z,10.43
2018-10-07T06:17:26.097Z,10.48
2018-10-07T06:18:26.130Z,10.48
2018-10-07T06:19:26.054Z,10.48
2018-10-07T06:20:26.399Z,10.57
2018-10-07T06:22:26.063Z,10.58
2018-10-07T06:23:25.983Z,10.62
2018-10-07T06:24:25.971Z,10.48
2018-10-07T06:25:26.040Z,10.57
2018-10-07T06:26:26.301Z,10.55
2018-10-07T06:27:26.010Z,10.48
2018-10-07T06:28:25.943Z,10.45
2018-10-07T06:29:25.957Z,10.43
2018-10-07T06:30:25.956Z,10.45
2018-10-07T06:31:25.838Z,10.45
2018-10-07T06:32:26.218Z,10.43
2018-10-07T06:33:25.801Z,10.45
2018-10-07T06:34:25.778Z,10.48
2018-10-07T06:35:26.110Z,10.49
2018-10-07T06:36:25.806Z,10.46
2018-10-07T06:37:25.803Z,10.45
2018-10-07T06:39:25.999Z,10.41
2018-10-07T06:40:25.696Z,10.42
2018-10-07T06:41:25.724Z,10.35
2018-10-07T06:42:25.708Z,10.48
2018-10-07T06:43:25.625Z,10.58
2018-10-07T06:44:25.670Z,10.41
2018-10-07T06:45:26.006Z,10.55
2018-10-07T06:46:25.639Z,10.52
2018-10-07T06:47:25.664Z,10.55
2018-10-07T06:48:25.613Z,10.45
2018-10-07T06:49:25.602Z,10.52
2018-10-07T06:50:25.492Z,10.54
2018-10-07T06:51:25.839Z,10.52
2018-10-07T06:52:25.486Z,10.48
2018-10-07T06:53:26.745Z,10.48
2018-10-07T06:55:25.391Z,10.20
2018-10-07T06:56:25.377Z,10.08
2018-10-07T06:57:25.360Z,10.08
2018-10-07T06:58:25.708Z,10.05
2018-10-07T06:59:25.443Z,10.02
2018-10-07T07:00:25.435Z,10.01
2018-10-07T07:01:25.350Z,9.99
2018-10-07T07:02:25.440Z,10.06
2018-10-07T07:03:25.258Z,10.10
2018-10-07T07:04:25.228Z,10.17
2018-10-07T07:05:25.521Z,10.23
2018-10-07T07:06:25.419Z,10.18
2018-10-07T07:07:25.188Z,10.23
2018-10-07T07:08:25.149Z,10.18
2018-10-07T07:09:25.223Z,10.17
2018-10-07T07:10:25.125Z,10.27
2018-10-07T07:11:25.109Z,10.23
2018-10-07T07:12:25.426Z,10.27
2018-10-07T07:13:25.067Z,10.28
2018-10-07T07:14:25.058Z,10.48
2018-10-07T07:15:25.016Z,10.57
2018-10-07T07:16:25.099Z,10.46
2018-10-07T07:17:25.065Z,10.45
2018-10-07T07:18:25.360Z,10.49
2018-10-07T07:19:25.245Z,10.57
2018-10-07T07:20:24.990Z,10.62
2018-10-07T07:21:24.976Z,10.64
2018-10-07T07:22:24.943Z,10.70
2018-10-07T07:23:24.867Z,10.65
2018-10-07T07:24:24.850Z,10.68
2018-10-07T07:25:24.831Z,10.70
2018-10-07T07:26:25.323Z,10.82
2018-10-07T07:27:24.976Z,10.73
2018-10-07T07:28:24.786Z,10.78
2018-10-07T07:30:24.745Z,10.78
2018-10-07T07:31:24.755Z,10.80
2018-10-07T07:32:24.716Z,10.79
2018-10-07T07:33:25.057Z,10.75
2018-10-07T07:34:24.684Z,10.86
2018-10-07T07:35:24.720Z,10.93
2018-10-07T07:36:24.778Z,11.03
2018-10-07T07:37:24.696Z,11.22
2018-10-07T07:38:24.594Z,11.22
2018-10-07T07:39:24.804Z,11.28
2018-10-07T07:40:24.861Z,11.31
2018-10-07T07:41:24.544Z,11.37
2018-10-07T07:42:24.609Z,11.43
2018-10-07T07:43:24.511Z,11.56
2018-10-07T07:44:24.498Z,11.61
2018-10-07T07:45:24.540Z,11.51
2018-10-07T07:46:24.892Z,11.59
2018-10-07T07:47:24.498Z,11.59
2018-10-07T07:48:24.420Z,11.52
2018-10-07T07:49:24.512Z,11.69
2018-10-07T07:50:24.385Z,11.93
2018-10-07T07:52:24.655Z,12.13
2018-10-07T07:53:24.417Z,12.22
2018-10-07T07:54:24.403Z,12.28
2018-10-07T07:55:24.375Z,11.95
2018-10-07T07:56:24.362Z,12.07
2018-10-07T07:57:24.326Z,12.03
2018-10-07T07:58:24.605Z,12.03
2018-10-07T07:59:24.238Z,11.97
2018-10-07T08:00:24.278Z,12.03
2018-10-07T08:01:24.193Z,11.82
2018-10-07T08:02:24.180Z,12.07
2018-10-07T08:03:24.220Z,12.13
2018-10-07T08:04:24.524Z,12.04
2018-10-07T08:05:24.122Z,12.00
2018-10-07T08:06:24.112Z,12.00
2018-10-07T08:07:24.088Z,11.84
2018-10-07T08:08:24.181Z,11.89
2018-10-07T08:09:24.107Z,12.13
2018-10-07T08:10:24.339Z,12.29
2018-10-07T08:11:24.628Z,12.55
2018-10-07T08:12:24.312Z,12.59
2018-10-07T08:13:24.073Z,12.59
2018-10-07T08:14:24.025Z,12.77
2018-10-07T08:15:23.977Z,12.93
2018-10-07T08:16:24.354Z,13.02
2018-10-07T08:17:24.126Z,13.17
2018-10-07T08:18:23.909Z,13.38
2018-10-07T08:19:24.003Z,13.49
2018-10-07T08:20:24.281Z,13.45
2018-10-07T08:21:23.858Z,13.42
2018-10-07T08:22:23.929Z,13.45
2018-10-07T08:23:24.147Z,13.29
2018-10-07T08:24:23.909Z,13.20
2018-10-07T08:25:23.857Z,13.23
2018-10-07T08:26:23.784Z,13.36
2018-10-07T08:27:24.078Z,13.14
2018-10-07T08:28:23.744Z,13.39
2018-10-07T08:29:23.812Z,13.40
2018-10-07T08:30:24.017Z,13.46
2018-10-07T08:31:23.703Z,13.57
2018-10-07T08:32:23.730Z,13.76
2018-10-07T08:33:23.916Z,13.75
2018-10-07T08:34:23.646Z,13.79
2018-10-07T08:35:23.681Z,13.64
2018-10-07T08:36:23.703Z,13.65
2018-10-07T08:37:23.968Z,13.71
2018-10-07T08:38:23.647Z,13.57
2018-10-07T08:39:23.633Z,13.57
2018-10-07T08:40:23.612Z,13.54
2018-10-07T08:41:24.017Z,13.57
2018-10-07T08:42:23.627Z,13.73
2018-10-07T08:43:23.819Z,13.88
2018-10-07T08:44:23.849Z,13.58
2018-10-07T08:45:23.483Z,13.79
2018-10-07T08:46:23.509Z,13.76
2018-10-07T08:48:23.438Z,13.60
2018-10-07T08:49:23.489Z,13.85
2018-10-07T08:50:23.395Z,14.09
2018-10-07T08:51:23.732Z,14.28
2018-10-07T08:52:23.363Z,14.34
2018-10-07T08:53:23.677Z,14.44
2018-10-07T08:54:23.690Z,14.56
2018-10-07T08:55:23.328Z,14.74
2018-10-07T08:56:23.456Z,14.79
2018-10-07T08:57:23.311Z,14.77
2018-10-07T08:58:23.583Z,14.70
2018-10-07T08:59:23.253Z,14.67
2018-10-07T09:00:23.406Z,14.73
2018-10-07T09:01:23.240Z,14.99
2018-10-07T09:02:23.219Z,15.15
2018-10-07T09:03:23.314Z,15.05
2018-10-07T09:04:23.317Z,14.87
2018-10-07T09:05:23.529Z,15.03
2018-10-07T09:06:23.231Z,14.73
2018-10-07T09:07:23.138Z,14.53
2018-10-07T09:08:23.120Z,14.56
2018-10-07T09:09:23.110Z,14.55
2018-10-07T09:10:23.116Z,14.85
2018-10-07T09:11:23.077Z,14.93
2018-10-07T09:12:23.065Z,15.11
2018-10-07T09:13:23.054Z,15.20
2018-10-07T09:14:23.078Z,15.11
2018-10-07T09:15:23.017Z,15.08
2018-10-07T09:16:23.062Z,15.20
2018-10-07T09:17:23.398Z,15.29
2018-10-07T09:18:22.980Z,15.50
2018-10-07T09:19:22.958Z,15.40
2018-10-07T09:20:23.102Z,15.50
2018-10-07T09:21:22.934Z,15.40
2018-10-07T09:22:22.979Z,15.59
2018-10-07T09:23:23.277Z,15.69
2018-10-07T09:24:22.905Z,15.60
2018-10-07T09:25:22.957Z,15.32
2018-10-07T09:26:22.951Z,15.22
2018-10-07T09:27:23.005Z,15.04
2018-10-07T09:28:22.914Z,14.74
2018-10-07T09:29:23.280Z,14.97
2018-10-07T09:30:22.816Z,14.90
2018-10-07T09:31:22.812Z,15.10
2018-10-07T09:32:22.946Z,15.27
2018-10-07T09:33:22.902Z,15.29
2018-10-07T09:34:22.873Z,15.27
2018-10-07T09:35:23.150Z,14.74
2018-10-07T09:36:22.833Z,14.59
2018-10-07T09:37:22.724Z,14.38
2018-10-07T09:38:22.746Z,14.21
2018-10-07T09:39:22.795Z,14.55
2018-10-07T09:41:23.029Z,15.20
2018-10-07T09:42:22.644Z,15.58
2018-10-07T09:43:22.834Z,15.85
2018-10-07T09:44:22.624Z,16.10
2018-10-07T09:45:25.428Z,16.02
2018-10-07T09:46:22.663Z,16.32
2018-10-07T09:47:22.837Z,16.42
2018-10-07T09:48:22.871Z,16.47
2018-10-07T09:49:22.549Z,16.62
2018-10-07T09:50:22.543Z,16.55
2018-10-07T09:51:22.578Z,16.46
2018-10-07T09:52:22.653Z,16.52
2018-10-07T09:53:22.504Z,16.51
2018-10-07T09:54:22.908Z,16.49
2018-10-07T09:55:22.577Z,16.46
2018-10-07T09:56:22.571Z,16.59
2018-10-07T09:57:22.575Z,16.79
2018-10-07T09:59:22.540Z,16.95
2018-10-07T10:01:22.897Z,16.91
2018-10-07T10:02:22.586Z,17.07
2018-10-07T10:03:22.382Z,17.06
2018-10-07T10:04:22.529Z,16.59
2018-10-07T10:05:22.413Z,16.74
2018-10-07T10:06:22.352Z,16.77
2018-10-07T10:07:22.337Z,16.94
2018-10-07T10:08:22.681Z,17.07
2018-10-07T10:09:22.386Z,17.30
2018-10-07T10:11:22.570Z,17.13
2018-10-07T10:12:22.392Z,17.22
2018-10-07T10:13:23.975Z,17.37
2018-10-07T10:14:22.659Z,17.35
2018-10-07T10:15:22.733Z,17.24
2018-10-07T10:16:22.253Z,16.77
2018-10-07T10:17:22.307Z,16.06
2018-10-07T10:18:22.264Z,16.06
2018-10-07T10:19:22.225Z,16.17
2018-10-07T10:20:22.264Z,16.21
2018-10-07T10:21:22.643Z,16.43
2018-10-07T10:22:22.215Z,16.43
2018-10-07T10:23:22.177Z,16.10
2018-10-07T10:24:22.302Z,16.16
2018-10-07T10:25:22.160Z,16.39
2018-10-07T10:26:22.203Z,16.73
2018-10-07T10:27:22.789Z,16.82
2018-10-07T10:28:22.121Z,16.95
2018-10-07T10:29:22.236Z,17.17
2018-10-07T10:30:22.157Z,17.41
2018-10-07T10:31:22.091Z,17.28
2018-10-07T10:32:22.105Z,17.45
2018-10-07T10:35:22.257Z,17.76
2018-10-07T10:36:22.232Z,17.96
2018-10-07T10:37:22.099Z,17.78
2018-10-07T10:38:22.090Z,17.49
2018-10-07T10:39:22.159Z,17.71
2018-10-07T10:40:22.213Z,17.81
2018-10-07T10:41:22.458Z,17.09
2018-10-07T10:42:22.116Z,17.10
2018-10-07T10:43:22.090Z,17.30
2018-10-07T10:44:22.072Z,17.54
2018-10-07T10:45:22.070Z,17.90
2018-10-07T10:46:22.133Z,18.13
2018-10-07T10:47:22.546Z,18.12
2018-10-07T10:48:22.175Z,18.18
2018-10-07T10:49:22.001Z,18.17
2018-10-07T10:50:22.021Z,17.96
2018-10-07T10:51:21.980Z,18.08
2018-10-07T10:52:21.909Z,18.12
2018-10-07T10:53:22.283Z,18.06
2018-10-07T10:54:21.940Z,18.12
2018-10-07T10:55:21.950Z,17.96
2018-10-07T10:56:21.966Z,17.68
2018-10-07T10:57:21.864Z,18.02
2018-10-07T10:58:21.863Z,18.13
2018-10-07T10:59:22.330Z,18.33
2018-10-07T11:00:21.856Z,18.57
2018-10-07T11:01:22.452Z,18.08
2018-10-07T11:02:21.828Z,17.83
2018-10-07T11:03:21.827Z,18.11
2018-10-07T11:04:21.880Z,17.81
2018-10-07T11:05:22.298Z,17.76
2018-10-07T11:06:21.879Z,18.08
2018-10-07T11:07:21.922Z,18.09
2018-10-07T11:08:21.906Z,17.68
2018-10-07T11:09:21.971Z,17.86
2018-10-07T11:10:21.883Z,17.66
2018-10-07T11:11:22.193Z,17.86
2018-10-07T11:12:21.880Z,18.12
2018-10-07T11:13:21.882Z,18.18
2018-10-07T11:14:21.926Z,18.48
2018-10-07T11:15:22.041Z,18.56
2018-10-07T11:16:21.822Z,18.70
2018-10-07T11:17:22.112Z,18.85
2018-10-07T11:18:21.720Z,18.54
2018-10-07T11:19:21.782Z,18.54
2018-10-07T11:20:21.700Z,18.86
2018-10-07T11:21:21.861Z,18.76
2018-10-07T11:22:21.701Z,18.70
2018-10-07T11:23:22.607Z,18.83
2018-10-07T11:24:21.750Z,18.70
2018-10-07T11:25:21.901Z,18.64
2018-10-07T11:26:21.742Z,18.83
2018-10-07T11:27:21.663Z,19.07
2018-10-07T11:28:21.910Z,19.24
2018-10-07T11:29:21.732Z,18.85
2018-10-07T11:30:22.020Z,18.98
2018-10-07T11:31:21.635Z,18.67
2018-10-07T11:32:21.772Z,17.93
2018-10-07T11:33:21.636Z,18.12
2018-10-07T11:34:21.643Z,18.17
2018-10-07T11:35:21.675Z,18.31
2018-10-07T11:36:21.604Z,18.18
2018-10-07T11:37:22.202Z,18.58
2018-10-07T11:38:21.600Z,18.54
2018-10-07T11:39:21.591Z,18.31
2018-10-07T11:40:21.593Z,18.30
2018-10-07T11:41:21.581Z,18.41
2018-10-07T11:42:21.572Z,18.56
2018-10-07T11:43:21.572Z,18.71
2018-10-07T11:44:22.108Z,18.85
2018-10-07T11:45:21.550Z,18.98
2018-10-07T11:46:21.546Z,18.97
2018-10-07T11:47:21.641Z,18.83
2018-10-07T11:48:21.534Z,18.60
2018-10-07T11:49:21.528Z,18.91
2018-10-07T11:50:21.675Z,19.04
2018-10-07T11:51:21.861Z,19.09
2018-10-07T11:52:21.702Z,19.09
2018-10-07T11:53:21.620Z,19.24
2018-10-07T11:54:21.500Z,18.85
2018-10-07T11:55:21.496Z,18.68
2018-10-07T11:56:21.563Z,18.85
2018-10-07T11:57:21.502Z,18.75
2018-10-07T11:58:21.785Z,18.58
2018-10-07T11:59:21.543Z,18.41
2018-10-07T12:00:21.465Z,18.46
2018-10-07T12:01:21.474Z,18.30
2018-10-07T12:02:21.515Z,18.42
2018-10-07T12:03:21.562Z,19.00
2018-10-07T12:04:22.163Z,18.83
2018-10-07T12:05:21.786Z,18.66
2018-10-07T12:06:21.436Z,18.60
2018-10-07T12:07:21.463Z,18.42
2018-10-07T12:08:21.494Z,18.63
2018-10-07T12:09:21.483Z,18.64
2018-10-07T12:10:21.540Z,18.46
2018-10-07T12:11:21.467Z,18.43
2018-10-07T12:12:21.943Z,18.31
2018-10-07T12:13:21.410Z,18.64
2018-10-07T12:14:21.394Z,19.12
2018-10-07T12:15:21.774Z,19.56
2018-10-07T12:16:21.538Z,19.78
2018-10-07T12:17:22.344Z,19.79
2018-10-07T12:18:21.561Z,19.37
2018-10-07T12:19:21.834Z,19.42
2018-10-07T12:20:21.614Z,19.20
2018-10-07T12:21:21.565Z,19.20
2018-10-07T12:22:21.478Z,19.41
2018-10-07T12:23:21.570Z,19.67
2018-10-07T12:24:22.475Z,20.00
2018-10-07T12:25:22.661Z,20.19
2018-10-07T12:26:21.413Z,20.17
2018-10-07T12:27:21.474Z,20.36
2018-10-07T12:28:21.313Z,20.29
2018-10-07T12:30:21.281Z,20.23
2018-10-07T12:31:21.880Z,20.44
2018-10-07T12:32:21.268Z,20.63
2018-10-07T12:33:21.616Z,20.52
2018-10-07T12:34:21.342Z,20.46
2018-10-07T12:35:21.458Z,20.50
2018-10-07T12:36:21.985Z,20.33
2018-10-07T12:37:22.438Z,20.50
2018-10-07T12:39:21.339Z,19.53
2018-10-07T12:40:21.537Z,19.52
2018-10-07T12:41:21.622Z,19.54
2018-10-07T12:42:21.325Z,19.92
2018-10-07T12:43:21.813Z,19.68
2018-10-07T12:44:21.218Z,19.52
2018-10-07T12:45:21.300Z,19.17
2018-10-07T12:46:21.182Z,19.41
2018-10-07T12:47:21.470Z,19.84
2018-10-07T12:49:24.000Z,20.25
2018-10-07T12:50:21.867Z,20.30
2018-10-07T12:51:21.176Z,20.50
2018-10-07T12:53:21.654Z,20.04
2018-10-07T12:54:21.577Z,19.47
2018-10-07T12:55:21.842Z,19.94
2018-10-07T12:56:21.203Z,20.26
2018-10-07T12:57:21.183Z,20.33
2018-10-07T12:58:21.209Z,19.86
2018-10-07T13:00:21.195Z,19.52
2018-10-07T13:02:21.279Z,20.26
2018-10-07T13:03:21.108Z,20.83
2018-10-07T13:10:23.686Z,20.52
2018-10-07T13:15:21.601Z,21.41
2018-10-07T13:16:21.008Z,21.14
2018-10-07T13:17:21.067Z,20.70
2018-10-07T13:18:21.488Z,20.34
2018-10-07T13:20:20.976Z,20.14
2018-10-07T13:21:21.063Z,20.04
2018-10-07T13:22:22.748Z,19.81
2018-10-07T13:23:21.048Z,19.68
2018-10-07T13:24:21.017Z,19.74
2018-10-07T13:25:21.033Z,19.84
2018-10-07T13:26:20.976Z,19.77
2018-10-07T13:27:21.055Z,20.09
2018-10-07T13:28:20.983Z,20.29
2018-10-07T13:29:21.319Z,20.56
2018-10-07T13:35:21.510Z,20.08
2018-10-07T13:36:20.966Z,20.17
2018-10-07T13:37:20.928Z,20.46